Time;durP1;ratioP1;P1;durP2;ratioP2;P2;SDS_P1;SDS_P2;PMS_P1;PMS_P2;Temp;Humidity;BMP_temperature;BMP_pressure;BME280_temperature;BME280_humidity;BME280_pressure;Samples;Min_cycle;Max_cycle;Signal;HPM_P1;HPM_P2
2022/10/10 00:02:53;;;;;;;5.43;1.70;;;7.70;99.90;;;;;;7342746;32;20516;-60
2022/10/10 00:06:54;;;;;;;3.53;1.70;;;7.80;99.90;;;;;;7343578;32;20200;-60
2022/10/10 00:10:56;;;;;;;2.72;1.55;;;7.90;99.90;;;;;;7345380;32;20707;-61
2022/10/10 00:14:58;;;;;;;2.97;1.65;;;8.00;99.90;;;;;;7344820;32;20235;-59
2022/10/10 00:18:59;;;;;;;2.65;1.48;;;8.10;99.90;;;;;;7349006;32;20107;-62
2022/10/10 00:23:01;;;;;;;3.28;1.27;;;8.20;99.90;;;;;;7347663;32;20134;-61
2022/10/10 00:27:03;;;;;;;3.85;1.45;;;8.20;99.90;;;;;;7340132;32;20115;-62
2022/10/10 00:31:08;;;;;;;5.15;1.37;;;8.30;99.90;;;;;;7338120;32;20130;-59
2022/10/10 00:35:10;;;;;;;5.57;1.87;;;8.40;99.90;;;;;;7348299;32;20133;-61
2022/10/10 00:39:12;;;;;;;2.58;1.50;;;8.50;99.90;;;;;;7341866;32;20523;-61
2022/10/10 00:43:14;;;;;;;4.35;1.60;;;8.30;99.90;;;;;;7347990;32;20138;-59
2022/10/10 00:47:16;;;;;;;3.87;1.40;;;8.40;99.90;;;;;;7336214;32;20487;-59
2022/10/10 00:51:18;;;;;;;3.75;1.40;;;8.40;99.90;;;;;;7339833;32;20115;-60
2022/10/10 00:55:20;;;;;;;4.95;1.48;;;8.60;99.90;;;;;;7349621;32;20772;-60
2022/10/10 00:59:23;;;;;;;4.68;1.75;;;8.60;99.90;;;;;;7346885;32;20111;-59
2022/10/10 01:03:25;;;;;;;3.47;1.58;;;8.60;99.90;;;;;;7344832;32;20261;-60
2022/10/10 01:07:29;;;;;;;3.55;1.60;;;8.60;99.90;;;;;;7344648;32;20209;-60
2022/10/10 01:11:39;;;;;;;5.65;1.48;;;8.60;99.90;;;;;;7344746;32;20752;-60
2022/10/10 01:16:00;;;;;;;2.90;1.67;;;8.60;99.90;;;;;;7345884;32;20115;-60
2022/10/10 01:20:15;;;;;;;4.15;1.40;;;8.70;99.90;;;;;;7342793;32;20150;-60
2022/10/10 01:24:40;;;;;;;2.75;1.45;;;8.70;99.90;;;;;;7336161;32;20198;-61
2022/10/10 01:28:52;;;;;;;4.18;1.55;;;8.70;99.90;;;;;;7339017;32;20103;-61
2022/10/10 01:33:00;;;;;;;4.95;1.45;;;8.60;99.90;;;;;;7336498;32;20106;-59
2022/10/10 01:37:23;;;;;;;4.60;1.65;;;8.60;99.90;;;;;;7341701;32;20568;-60
2022/10/10 01:41:35;;;;;;;2.95;1.35;;;8.70;99.90;;;;;;7337827;32;20104;-59
2022/10/10 01:45:46;;;;;;;2.83;1.52;;;8.60;99.90;;;;;;7343368;32;20198;-60
2022/10/10 01:49:56;;;;;;;3.67;1.35;;;8.60;99.90;;;;;;7342118;32;20141;-60
2022/10/10 01:54:12;;;;;;;3.12;1.40;;;8.60;99.90;;;;;;7347008;32;20221;-60
2022/10/10 01:58:35;;;;;;;2.20;1.30;;;8.60;99.90;;;;;;7346700;32;20131;-60
2022/10/10 02:02:55;;;;;;;3.85;1.50;;;8.60;99.90;;;;;;7341035;32;20200;-60
2022/10/10 02:07:25;;;;;;;3.72;1.40;;;8.60;99.90;;;;;;7345688;32;20850;-61
2022/10/10 02:11:31;;;;;;;4.03;1.48;;;8.60;99.90;;;;;;7347192;32;20125;-59
2022/10/10 02:15:41;;;;;;;2.42;1.25;;;8.50;99.90;;;;;;7344908;32;20099;-61
2022/10/10 02:19:47;;;;;;;2.60;1.40;;;8.60;99.90;;;;;;7347610;32;20118;-60
2022/10/10 02:23:52;;;;;;;2.25;1.42;;;8.60;99.90;;;;;;7349017;32;20096;-61
2022/10/10 02:27:58;;;;;;;4.85;1.50;;;8.60;99.90;;;;;;7343696;32;20183;-62
2022/10/10 02:32:05;;;;;;;4.15;1.33;;;8.70;99.90;;;;;;7345907;32;20091;-61
2022/10/10 02:36:07;;;;;;;;;;;8.70;99.90;;;;;;7356571;32;20339;-59
2022/10/10 02:40:13;;;;;;;3.72;1.80;;;8.60;99.90;;;;;;7344045;32;20100;-60
2022/10/10 02:44:15;;;;;;;3.37;1.45;;;8.60;99.90;;;;;;7345485;32;20127;-61
2022/10/10 02:48:17;;;;;;;3.53;1.62;;;8.70;99.90;;;;;;7342479;32;20178;-60
2022/10/10 02:52:19;;;;;;;2.87;1.50;;;8.80;99.90;;;;;;7338931;32;20111;-60
2022/10/10 02:56:21;;;;;;;5.25;1.80;;;8.80;99.90;;;;;;7350121;32;20149;-60
2022/10/10 03:00:22;;;;;;;3.55;1.70;;;8.90;99.90;;;;;;7338027;32;20248;-59
2022/10/10 03:04:24;;;;;;;6.10;1.70;;;8.90;99.90;;;;;;7339213;32;20126;-61
2022/10/10 03:08:26;;;;;;;3.33;1.60;;;9.00;99.90;;;;;;7344389;32;20177;-59
2022/10/10 03:12:28;;;;;;;5.10;1.90;;;9.00;99.90;;;;;;7343770;32;20206;-60
2022/10/10 03:16:29;;;;;;;3.58;1.70;;;9.10;99.90;;;;;;7346972;32;20108;-62
2022/10/10 03:20:31;;;;;;;4.80;2.00;;;9.10;99.90;;;;;;7343073;32;20129;-60
2022/10/10 03:24:33;;;;;;;4.05;1.50;;;9.20;99.90;;;;;;7338848;32;20145;-62
2022/10/10 03:28:36;;;;;;;3.72;1.73;;;9.20;99.90;;;;;;7343621;32;20138;-60
2022/10/10 03:32:38;;;;;;;7.80;2.30;;;9.20;99.90;;;;;;7342917;32;20270;-60
2022/10/10 03:36:40;;;;;;;3.53;1.90;;;9.20;99.90;;;;;;7342982;32;20107;-60
2022/10/10 03:40:43;;;;;;;7.12;1.83;;;9.20;99.90;;;;;;7346106;32;20107;-60
2022/10/10 03:44:44;;;;;;;6.30;2.10;;;9.20;99.90;;;;;;7346377;32;20439;-60
2022/10/10 03:48:46;;;;;;;7.00;1.83;;;9.20;99.90;;;;;;7341316;32;20494;-59
2022/10/10 03:52:48;;;;;;;7.40;2.05;;;9.20;99.90;;;;;;7343531;32;20095;-60
2022/10/10 03:56:50;;;;;;;4.78;2.28;;;9.10;99.90;;;;;;7353154;32;20178;-60
2022/10/10 04:00:53;;;;;;;6.55;2.20;;;9.20;99.90;;;;;;7346549;32;20470;-61
2022/10/10 04:04:55;;;;;;;4.40;2.40;;;9.30;99.90;;;;;;7342924;32;20131;-60
2022/10/10 04:08:57;;;;;;;2.95;2.00;;;9.20;99.90;;;;;;7348577;32;20123;-61
2022/10/10 04:12:59;;;;;;;4.30;2.05;;;9.20;99.90;;;;;;7341453;32;20216;-60
2022/10/10 04:17:00;;;;;;;5.90;2.28;;;9.20;99.90;;;;;;7344305;32;20099;-60
2022/10/10 04:21:05;;;;;;;3.72;2.00;;;9.20;99.90;;;;;;7336161;32;20123;-59
2022/10/10 04:25:07;;;;;;;4.95;2.05;;;9.20;99.90;;;;;;7340175;32;20114;-60
2022/10/10 04:29:09;;;;;;;5.30;2.33;;;9.20;99.90;;;;;;7344138;32;20114;-59
2022/10/10 04:33:11;;;;;;;6.97;2.17;;;9.20;99.90;;;;;;7341681;32;20100;-60
2022/10/10 04:37:12;;;;;;;5.12;1.80;;;9.20;99.90;;;;;;7338988;32;20763;-59
2022/10/10 04:41:14;;;;;;;4.07;1.90;;;9.30;99.90;;;;;;7339303;32;20123;-60
2022/10/10 04:45:16;;;;;;;4.00;2.20;;;9.20;99.90;;;;;;7340282;32;20111;-60
2022/10/10 04:49:18;;;;;;;3.75;1.92;;;9.20;99.90;;;;;;7338551;32;20258;-61
2022/10/10 04:53:20;;;;;;;5.93;2.70;;;9.20;99.90;;;;;;7348994;32;20104;-61
2022/10/10 04:57:22;;;;;;;4.60;2.45;;;9.10;99.90;;;;;;7340483;32;20119;-60
2022/10/10 05:01:24;;;;;;;6.53;2.53;;;9.10;99.90;;;;;;7340890;32;20103;-60
2022/10/10 05:05:26;;;;;;;8.82;2.92;;;9.10;99.90;;;;;;7345531;32;20125;-60
2022/10/10 05:09:27;;;;;;;4.80;2.60;;;9.10;99.90;;;;;;7338104;32;20564;-60
2022/10/10 05:13:29;;;;;;;5.68;2.30;;;9.10;99.90;;;;;;7340730;32;20103;-61
2022/10/10 05:17:31;;;;;;;5.53;2.55;;;9.10;99.90;;;;;;7341442;32;20099;-60
2022/10/10 05:21:32;;;;;;;8.63;3.42;;;9.20;99.90;;;;;;7335062;32;20120;-61
2022/10/10 05:25:34;;;;;;;7.03;3.17;;;9.20;99.90;;;;;;7345499;32;20206;-61
2022/10/10 05:29:36;;;;;;;3.50;1.98;;;9.20;99.90;;;;;;7343705;32;22674;-60
2022/10/10 05:33:37;;;;;;;8.23;2.72;;;9.10;99.90;;;;;;7338454;32;20126;-61
2022/10/10 05:37:39;;;;;;;8.27;2.75;;;9.20;99.90;;;;;;7349306;32;20115;-63
2022/10/10 05:41:41;;;;;;;6.40;2.78;;;9.10;99.90;;;;;;7344667;32;20108;-63
2022/10/10 05:45:42;;;;;;;6.05;2.90;;;9.20;99.90;;;;;;7342855;32;20142;-61
2022/10/10 05:49:44;;;;;;;6.37;2.17;;;9.20;99.90;;;;;;7345440;32;20229;-66
2022/10/10 05:53:47;;;;;;;6.07;3.58;;;9.20;99.90;;;;;;7345267;32;20143;-63
2022/10/10 05:57:48;;;;;;;5.10;2.85;;;9.20;99.90;;;;;;7329433;32;20593;-63
2022/10/10 06:01:50;;;;;;;7.55;2.87;;;9.20;99.90;;;;;;7331570;32;20119;-65
2022/10/10 06:05:52;;;;;;;7.30;2.42;;;9.20;99.90;;;;;;7336887;32;20137;-64
2022/10/10 06:09:54;;;;;;;5.00;2.53;;;9.20;99.90;;;;;;7350553;32;20106;-65
2022/10/10 06:13:56;;;;;;;3.83;2.30;;;9.20;99.90;;;;;;7347203;32;20130;-62
2022/10/10 06:17:57;;;;;;;4.95;3.20;;;9.20;99.90;;;;;;7346831;32;20440;-62
2022/10/10 06:21:59;;;;;;;6.50;2.90;;;9.20;99.90;;;;;;7346453;32;20546;-65
2022/10/10 06:26:01;;;;;;;5.32;2.80;;;9.20;99.90;;;;;;7346759;32;20107;-65
2022/10/10 06:30:03;;;;;;;5.40;2.83;;;9.30;99.90;;;;;;7346302;32;20123;-63
2022/10/10 06:34:06;;;;;;;5.60;3.03;;;9.40;99.90;;;;;;7361580;32;20107;-64
2022/10/10 06:38:09;;;;;;;5.95;2.37;;;9.40;99.90;;;;;;7347677;32;20136;-63
2022/10/10 06:42:10;;;;;;;5.80;2.70;;;9.50;99.90;;;;;;7341638;32;20095;-64
2022/10/10 06:46:12;;;;;;;7.12;2.80;;;9.50;99.90;;;;;;7352365;32;20868;-64
2022/10/10 06:50:14;;;;;;;5.50;2.50;;;9.60;99.90;;;;;;7350469;32;20463;-64
2022/10/10 06:54:15;;;;;;;7.43;3.55;;;9.70;99.90;;;;;;7345274;32;20534;-62
2022/10/10 06:58:17;;;;;;;6.65;2.83;;;9.80;99.90;;;;;;7348819;32;20480;-64
2022/10/10 07:02:19;;;;;;;6.32;3.25;;;9.80;99.90;;;;;;7345524;32;20540;-64
2022/10/10 07:06:21;;;;;;;6.90;3.05;;;9.90;99.90;;;;;;7344790;32;20111;-66
2022/10/10 07:10:23;;;;;;;5.47;2.80;;;10.10;99.90;;;;;;7352781;32;20463;-64
2022/10/10 07:14:25;;;;;;;7.78;3.08;;;10.20;99.90;;;;;;7346650;32;20604;-63
2022/10/10 07:18:27;;;;;;;8.48;2.75;;;10.40;99.90;;;;;;7343064;32;20232;-64
2022/10/10 07:22:29;;;;;;;6.82;2.90;;;10.50;99.90;;;;;;7343091;32;20197;-63
2022/10/10 07:26:35;;;;;;;5.68;3.00;;;10.60;99.90;;;;;;7348304;32;20107;-63
2022/10/10 07:30:42;;;;;;;6.55;2.30;;;10.70;99.90;;;;;;7350743;32;20699;-63
2022/10/10 07:34:44;;;;;;;5.35;2.50;;;10.80;99.90;;;;;;7344256;32;20178;-64
2022/10/10 07:38:50;;;;;;;7.95;3.10;;;10.80;99.90;;;;;;7345937;32;20226;-64
2022/10/10 07:42:52;;;;;;;7.97;3.33;;;10.90;99.90;;;;;;7344828;32;20222;-63
2022/10/10 07:46:54;;;;;;;8.73;3.03;;;11.10;99.90;;;;;;7344920;32;20107;-63
2022/10/10 07:50:56;;;;;;;9.90;3.40;;;11.20;99.90;;;;;;7342226;32;20145;-64
2022/10/10 07:54:58;;;;;;;8.07;3.42;;;11.30;99.90;;;;;;7338252;32;20099;-63
2022/10/10 07:58:59;;;;;;;7.37;3.35;;;11.30;99.90;;;;;;7342731;32;20111;-63
2022/10/10 08:03:01;;;;;;;7.68;2.80;;;11.30;99.90;;;;;;7340366;32;20133;-64
2022/10/10 08:07:03;;;;;;;6.78;3.10;;;11.40;99.90;;;;;;7338539;32;20108;-64
2022/10/10 08:11:07;;;;;;;7.55;3.20;;;11.40;99.90;;;;;;7342958;32;20218;-60
2022/10/10 08:15:09;;;;;;;4.90;3.12;;;11.50;99.90;;;;;;7343699;32;20533;-60
2022/10/10 08:19:16;;;;;;;9.63;4.15;;;11.60;99.90;;;;;;7341248;32;20237;-62
2022/10/10 08:23:18;;;;;;;9.82;3.22;;;11.60;99.90;;;;;;7336249;32;20447;-63
2022/10/10 08:27:23;;;;;;;5.28;3.08;;;11.60;99.90;;;;;;7342761;32;20186;-62
2022/10/10 08:31:25;;;;;;;9.70;3.30;;;11.70;99.90;;;;;;7343483;32;20100;-65
2022/10/10 08:35:27;;;;;;;7.87;3.25;;;11.70;99.90;;;;;;7343096;32;20107;-64
2022/10/10 08:39:29;;;;;;;8.32;3.65;;;11.80;99.90;;;;;;7344116;32;20221;-64
2022/10/10 08:43:47;;;;;;;11.10;3.75;;;12.00;99.90;;;;;;7337940;32;20341;-62
2022/10/10 08:47:57;;;;;;;8.45;3.65;;;12.10;99.90;;;;;;7337619;32;20201;-62
2022/10/10 08:52:22;;;;;;;7.50;3.05;;;12.20;99.90;;;;;;7347213;32;20224;-63
2022/10/10 08:56:29;;;;;;;7.95;3.60;;;12.30;99.90;;;;;;7334789;32;20464;-58
2022/10/10 09:00:38;;;;;;;9.73;3.65;;;12.50;99.90;;;;;;7348746;32;20129;-64
2022/10/10 09:04:40;;;;;;;8.85;3.17;;;12.60;99.90;;;;;;7346657;32;20100;-63
2022/10/10 09:09:09;;;;;;;6.57;3.33;;;13.10;99.90;;;;;;7342864;32;20152;-62
2022/10/10 09:13:45;;;;;;;8.23;3.20;;;13.10;99.90;;;;;;7342249;32;20142;-63
2022/10/10 09:18:01;;;;;;;8.40;3.05;;;13.50;99.90;;;;;;7333746;32;20125;-64
2022/10/10 09:22:09;;;;;;;10.30;3.30;;;13.80;99.90;;;;;;7338797;32;20107;-65
2022/10/10 09:26:15;;;;;;;5.62;3.10;;;13.90;99.90;;;;;;7338389;32;20107;-64
2022/10/10 09:30:19;;;;;;;5.95;2.95;;;14.10;99.90;;;;;;7346827;32;20107;-63
2022/10/10 09:34:30;;;;;;;9.00;3.05;;;14.60;99.90;;;;;;7338297;32;20141;-64
2022/10/10 09:38:37;;;;;;;5.53;2.80;;;16.20;99.90;;;;;;7343758;32;20210;-64
2022/10/10 09:42:43;;;;;;;11.10;2.95;;;16.90;99.90;;;;;;7338474;32;20190;-64
2022/10/10 09:46:45;;;;;;;7.78;2.60;;;17.40;99.90;;;;;;7343828;32;20102;-63
2022/10/10 09:50:46;;;;;;;7.32;2.45;;;18.40;99.90;;;;;;7340014;32;20134;-64
2022/10/10 09:54:55;;;;;;;9.50;3.12;;;19.10;99.90;;;;;;7343219;32;20099;-64
2022/10/10 09:58:57;;;;;;;7.22;2.17;;;19.80;99.90;;;;;;7341634;32;20092;-63
2022/10/10 10:03:05;;;;;;;11.43;2.67;;;19.20;99.90;;;;;;7340265;32;20387;-64
2022/10/10 10:07:27;;;;;;;10.50;2.97;;;18.60;99.90;;;;;;7344263;32;20111;-66
2022/10/10 10:11:38;;;;;;;7.28;2.75;;;18.00;99.90;;;;;;7343588;32;20125;-62
2022/10/10 10:15:52;;;;;;;10.32;2.95;;;17.60;99.90;;;;;;7346661;32;20213;-66
2022/10/10 10:19:54;;;;;;;10.63;2.97;;;17.20;99.90;;;;;;7341728;32;20186;-62
2022/10/10 10:23:56;;;;;;;11.00;3.00;;;17.00;99.90;;;;;;7342829;32;20111;-65
2022/10/10 10:28:14;;;;;;;7.97;3.20;;;16.80;99.90;;;;;;7346523;32;20111;-63
2022/10/10 10:32:49;;;;;;;11.45;2.97;;;16.70;99.90;;;;;;7347594;32;20100;-62
2022/10/10 10:37:19;;;;;;;8.70;2.70;;;16.70;99.90;;;;;;7343693;32;20130;-62
2022/10/10 10:41:33;;;;;;;8.18;3.40;;;16.60;99.90;;;;;;7345672;32;20146;-63
2022/10/10 10:46:00;;;;;;;10.98;2.92;;;16.60;99.90;;;;;;7340549;32;20198;-63
2022/10/10 10:50:15;;;;;;;7.68;3.17;;;16.70;99.90;;;;;;7346668;32;20572;-62
2022/10/10 10:54:35;;;;;;;7.55;2.90;;;16.70;99.90;;;;;;7342720;32;20209;-65
2022/10/10 10:59:03;;;;;;;11.93;2.90;;;16.80;99.90;;;;;;7344314;32;20765;-62
2022/10/10 11:04:23;;;;;;;9.32;2.75;;;16.90;99.90;;;;;;7341623;32;20248;-62
2022/10/10 11:09:00;;;;;;;10.07;3.33;;;17.00;99.90;;;;;;7316210;32;20118;-63
2022/10/10 11:13:08;;;;;;;9.07;2.95;;;17.00;99.90;;;;;;7343719;32;20137;-66
2022/10/10 11:17:12;;;;;;;9.07;2.95;;;17.10;99.90;;;;;;7343655;32;20104;-66
2022/10/10 11:21:22;;;;;;;7.43;2.70;;;17.20;99.90;;;;;;7337421;32;20515;-65
2022/10/10 11:25:40;;;;;;;8.60;2.70;;;17.30;99.90;;;;;;7350667;32;20099;-65
2022/10/10 11:30:11;;;;;;;10.48;2.65;;;17.50;99.90;;;;;;7345302;32;20176;-63
2022/10/10 11:34:30;;;;;;;10.50;2.75;;;17.50;99.90;;;;;;7354752;32;20281;-63
2022/10/10 11:38:39;;;;;;;8.60;2.50;;;17.50;99.90;;;;;;7341938;32;20121;-63
2022/10/10 11:42:55;;;;;;;12.02;2.45;;;17.60;99.90;;;;;;7345216;32;20198;-63
2022/10/10 11:47:09;;;;;;;16.17;2.65;;;17.70;99.90;;;;;;7343010;32;20130;-63
2022/10/10 11:51:35;;;;;;;13.05;2.47;;;17.90;99.90;;;;;;7344862;32;20197;-64
2022/10/10 11:56:13;;;;;;;7.05;2.50;;;17.80;99.90;;;;;;7348926;32;20118;-66
2022/10/10 12:00:16;;;;;;;;;;;17.90;99.90;;;;;;7326487;32;20168;-63
2022/10/10 12:04:18;;;;;;;11.65;2.37;;;18.10;99.90;;;;;;7343605;32;20398;-63
2022/10/10 12:08:27;;;;;;;7.37;2.03;;;18.00;99.90;;;;;;7343879;32;20126;-66
2022/10/10 12:12:36;;;;;;;11.10;2.42;;;18.00;99.90;;;;;;7342281;32;20479;-63
2022/10/10 12:16:38;;;;;;;11.90;2.28;;;18.00;99.90;;;;;;7343933;32;20197;-63
2022/10/10 12:20:39;;;;;;;11.10;2.30;;;18.00;99.90;;;;;;7344833;32;20109;-65
2022/10/10 12:25:04;;;;;;;10.43;1.85;;;18.10;99.90;;;;;;7339130;32;20187;-64
2022/10/10 12:29:09;;;;;;;7.87;2.22;;;18.30;99.90;;;;;;7341176;32;20206;-63
2022/10/10 12:33:38;;;;;;;8.43;2.15;;;18.30;99.90;;;;;;7342854;32;20261;-63
2022/10/10 12:38:08;;;;;;;11.32;2.45;;;18.40;99.90;;;;;;7341802;32;20594;-66
2022/10/10 12:42:45;;;;;;;12.20;2.58;;;18.40;99.90;;;;;;7344808;32;20092;-64
2022/10/10 12:47:07;;;;;;;9.70;2.40;;;18.40;99.90;;;;;;7316777;32;20460;-65
2022/10/10 12:51:22;;;;;;;9.20;2.20;;;18.50;99.90;;;;;;7340890;32;20524;-64
2022/10/10 12:55:25;;;;;;;11.40;2.20;;;18.60;99.90;;;;;;7346547;32;20202;-62
2022/10/10 12:59:27;;;;;;;7.28;2.30;;;18.80;99.90;;;;;;7341792;32;21006;-64
2022/10/10 13:03:43;;;;;;;8.10;2.17;;;19.00;99.90;;;;;;7346793;32;20126;-66
2022/10/10 13:07:48;;;;;;;9.88;2.40;;;19.20;99.90;;;;;;7344952;32;20137;-65
2022/10/10 13:12:04;;;;;;;14.73;2.42;;;19.30;99.90;;;;;;7341415;32;20094;-66
2022/10/10 13:16:12;;;;;;;14.50;2.30;;;19.40;99.90;;;;;;7347071;32;20126;-65
2022/10/10 13:20:40;;;;;;;8.70;2.10;;;19.20;99.90;;;;;;7341281;32;20145;-64
2022/10/10 13:24:42;;;;;;;7.15;2.00;;;19.00;99.90;;;;;;7327008;32;20656;-63
2022/10/10 13:28:44;;;;;;;10.23;2.03;;;18.80;99.90;;;;;;7340220;32;20979;-63
2022/10/10 13:32:46;;;;;;;9.23;1.85;;;18.80;99.90;;;;;;7340918;32;20230;-63
2022/10/10 13:36:48;;;;;;;8.57;1.90;;;19.20;99.90;;;;;;7345770;32;20769;-63
2022/10/10 13:40:51;;;;;;;16.40;2.05;;;19.60;99.90;;;;;;7343950;32;20095;-64
2022/10/10 13:44:54;;;;;;;11.02;2.03;;;19.80;99.90;;;;;;7346228;32;20111;-64
2022/10/10 13:48:57;;;;;;;10.85;2.03;;;19.70;99.90;;;;;;7340386;32;20099;-63
2022/10/10 13:53:20;;;;;;;8.73;1.90;;;19.60;99.90;;;;;;7347136;32;20168;-63
2022/10/10 13:57:25;;;;;;;12.63;2.33;;;19.20;99.90;;;;;;7341861;32;20212;-64
2022/10/10 14:01:43;;;;;;;11.00;2.97;;;19.00;99.90;;;;;;7347878;32;20103;-65
2022/10/10 14:05:46;;;;;;;11.50;2.33;;;18.90;99.90;;;;;;7348341;32;20133;-65
2022/10/10 14:09:57;;;;;;;14.85;2.33;;;18.80;99.90;;;;;;7346240;32;20143;-67
2022/10/10 14:14:23;;;;;;;10.55;2.50;;;18.90;99.90;;;;;;7347726;32;20113;-66
2022/10/10 14:18:25;;;;;;;9.23;2.10;;;18.90;99.90;;;;;;7348656;32;20103;-64
2022/10/10 14:22:26;;;;;;;12.80;2.20;;;18.80;99.90;;;;;;7342927;32;20129;-65
2022/10/10 14:26:28;;;;;;;14.87;2.37;;;18.70;99.90;;;;;;7343407;32;20100;-64
2022/10/10 14:30:30;;;;;;;10.60;2.20;;;18.70;99.90;;;;;;7345293;32;20197;-66
2022/10/10 14:34:32;;;;;;;13.15;2.00;;;18.50;99.90;;;;;;7348909;32;20208;-65
2022/10/10 14:38:34;;;;;;;9.13;2.08;;;18.20;99.90;;;;;;7346003;32;20218;-65
2022/10/10 14:42:35;;;;;;;11.02;2.72;;;18.10;99.90;;;;;;7347171;32;20111;-61
2022/10/10 14:46:39;;;;;;;8.82;2.37;;;18.00;99.90;;;;;;7348732;32;20103;-60
2022/10/10 14:50:43;;;;;;;17.05;2.72;;;18.00;99.90;;;;;;7345798;32;20148;-61
2022/10/10 14:54:45;;;;;;;12.13;2.12;;;17.80;99.90;;;;;;7344800;32;20111;-60
2022/10/10 14:58:47;;;;;;;12.02;1.95;;;17.70;99.90;;;;;;7345713;32;20174;-63
2022/10/10 15:02:49;;;;;;;13.23;2.25;;;17.50;99.90;;;;;;7345872;32;20134;-66
2022/10/10 15:06:51;;;;;;;14.27;2.17;;;17.30;99.90;;;;;;7344712;32;20231;-63
2022/10/10 15:11:16;;;;;;;8.38;2.60;;;17.30;99.90;;;;;;7343390;32;20258;-63
2022/10/10 15:15:17;;;;;;;7.87;2.40;;;17.00;99.90;;;;;;7356089;32;20107;-66
2022/10/10 15:19:19;;;;;;;10.40;3.20;;;16.80;99.90;;;;;;7346784;32;20100;-66
2022/10/10 15:23:21;;;;;;;13.90;3.45;;;16.70;99.90;;;;;;7345569;32;20626;-64
2022/10/10 15:27:23;;;;;;;15.80;3.40;;;16.60;99.90;;;;;;7344782;32;20204;-65
2022/10/10 15:31:29;;;;;;;14.95;4.43;;;16.40;99.90;;;;;;7344997;32;20234;-63
2022/10/10 15:35:30;;;;;;;12.20;4.32;;;16.30;99.90;;;;;;7338961;32;20213;-66
2022/10/10 15:39:52;;;;;;;10.32;3.42;;;16.20;99.90;;;;;;7331586;32;20373;-63
2022/10/10 15:43:54;;;;;;;11.73;2.95;;;16.30;99.90;;;;;;7342050;32;20118;-64
2022/10/10 15:47:57;;;;;;;14.10;3.00;;;16.20;99.90;;;;;;7343913;32;20104;-65
2022/10/10 15:51:58;;;;;;;7.30;2.28;;;16.10;99.90;;;;;;7348502;32;20377;-65
2022/10/10 15:56:04;;;;;;;6.90;2.50;;;16.20;99.90;;;;;;7342966;32;20103;-64
2022/10/10 16:00:11;;;;;;;7.22;2.62;;;16.30;99.90;;;;;;7344887;32;20129;-65
2022/10/10 16:04:13;;;;;;;11.50;2.42;;;16.10;99.90;;;;;;7329662;32;20285;-64
2022/10/10 16:08:15;;;;;;;7.80;2.40;;;16.10;99.90;;;;;;7340694;32;20169;-63
2022/10/10 16:12:16;;;;;;;8.93;3.08;;;15.90;99.90;;;;;;7339694;32;20263;-64
2022/10/10 16:16:20;;;;;;;4.32;2.12;;;15.80;99.90;;;;;;7346256;32;20729;-64
2022/10/10 16:20:21;;;;;;;7.43;2.72;;;15.80;99.90;;;;;;7343736;32;20139;-64
2022/10/10 16:24:23;;;;;;;6.78;2.50;;;15.70;99.90;;;;;;7352830;32;20189;-65
2022/10/10 16:28:25;;;;;;;9.50;3.00;;;15.60;99.90;;;;;;7339437;32;20295;-64
2022/10/10 16:32:26;;;;;;;11.00;3.25;;;15.50;99.90;;;;;;7344067;32;20111;-63
2022/10/10 16:36:31;;;;;;;7.75;2.85;;;15.50;99.90;;;;;;7345736;32;20091;-63
2022/10/10 16:40:35;;;;;;;10.07;4.00;;;15.40;99.90;;;;;;7335828;32;20111;-66
2022/10/10 16:44:37;;;;;;;12.15;4.30;;;15.30;99.90;;;;;;7348009;32;20229;-64
2022/10/10 16:48:39;;;;;;;11.70;4.12;;;15.40;99.90;;;;;;7341504;32;20099;-64
2022/10/10 16:52:41;;;;;;;11.32;4.40;;;15.40;99.90;;;;;;7345909;32;20095;-63
2022/10/10 16:56:43;;;;;;;8.88;4.50;;;15.30;99.90;;;;;;7345229;32;20905;-63
2022/10/10 17:00:44;;;;;;;11.32;4.70;;;15.10;99.90;;;;;;7346167;32;20122;-63
2022/10/10 17:04:46;;;;;;;14.93;6.20;;;15.10;99.90;;;;;;7342224;32;20492;-62
2022/10/10 17:08:51;;;;;;;11.98;5.90;;;15.10;99.90;;;;;;7343860;32;20121;-62
2022/10/10 17:12:53;;;;;;;11.88;5.43;;;15.00;99.90;;;;;;7345517;32;20170;-62
2022/10/10 17:16:54;;;;;;;9.93;4.82;;;14.80;99.90;;;;;;7339128;32;20228;-61
2022/10/10 17:21:17;;;;;;;8.93;5.07;;;14.80;99.90;;;;;;7343989;32;20194;-61
2022/10/10 17:25:19;;;;;;;8.07;4.60;;;14.80;99.90;;;;;;7349319;32;20130;-63
2022/10/10 17:29:22;;;;;;;8.35;6.35;;;14.60;99.90;;;;;;7344523;32;20099;-65
2022/10/10 17:33:24;;;;;;;11.32;6.62;;;14.70;99.90;;;;;;7352888;32;20185;-62
2022/10/10 17:37:25;;;;;;;9.15;6.60;;;14.60;99.90;;;;;;7346912;32;20174;-62
2022/10/10 17:41:28;;;;;;;12.57;5.93;;;14.50;99.90;;;;;;7349026;32;20893;-60
2022/10/10 17:45:29;;;;;;;8.65;5.80;;;14.40;99.90;;;;;;7349320;32;20174;-60
2022/10/10 17:49:31;;;;;;;7.05;5.70;;;14.30;99.90;;;;;;7354949;32;20095;-63
2022/10/10 17:53:33;;;;;;;6.07;4.85;;;14.20;99.90;;;;;;7342916;32;20266;-65
2022/10/10 17:57:35;;;;;;;5.53;3.65;;;14.00;99.90;;;;;;7347447;32;20128;-64
2022/10/10 18:01:38;;;;;;;8.07;2.20;;;13.80;99.90;;;;;;7349164;32;20091;-60
2022/10/10 18:05:40;;;;;;;8.80;2.60;;;13.70;99.90;;;;;;7349039;32;20203;-63
2022/10/10 18:09:42;;;;;;;12.13;2.65;;;13.60;99.90;;;;;;7349791;32;20191;-63
2022/10/10 18:13:44;;;;;;;8.90;1.85;;;13.50;99.90;;;;;;7351559;32;20205;-61
2022/10/10 18:17:47;;;;;;;13.05;1.70;;;13.30;99.90;;;;;;7348535;32;20723;-60
2022/10/10 18:21:49;;;;;;;12.90;1.62;;;13.30;99.90;;;;;;7358250;32;20113;-61
2022/10/10 18:26:00;;;;;;;10.88;1.83;;;13.20;99.90;;;;;;7350619;32;20130;-60
2022/10/10 18:30:02;;;;;;;16.12;2.30;;;13.10;99.90;;;;;;7349816;32;20103;-63
2022/10/10 18:34:05;;;;;;;12.25;1.65;;;13.00;99.90;;;;;;7340123;32;20174;-62
2022/10/10 18:38:07;;;;;;;14.30;1.67;;;12.90;99.90;;;;;;7348493;32;20104;-64
2022/10/10 18:42:09;;;;;;;8.27;1.58;;;12.90;99.90;;;;;;7339633;32;20178;-63
2022/10/10 18:46:13;;;;;;;10.35;1.75;;;12.80;99.90;;;;;;7343945;32;20153;-65
2022/10/10 18:50:15;;;;;;;15.98;1.65;;;12.80;99.90;;;;;;7344408;32;20416;-62
2022/10/10 18:54:17;;;;;;;18.08;1.67;;;12.80;99.90;;;;;;7351647;32;20137;-63
2022/10/10 18:58:19;;;;;;;12.75;1.60;;;12.90;99.90;;;;;;7339550;32;20789;-63
2022/10/10 19:02:20;;;;;;;18.50;1.60;;;12.90;99.90;;;;;;7353190;32;20141;-63
2022/10/10 19:06:23;;;;;;;9.38;1.40;;;12.80;99.90;;;;;;7341190;32;20099;-63
2022/10/10 19:10:25;;;;;;;15.30;2.17;;;12.70;99.90;;;;;;7341679;32;20512;-65
2022/10/10 19:14:26;;;;;;;13.05;1.77;;;12.70;99.90;;;;;;7346700;32;20217;-65
2022/10/10 19:18:28;;;;;;;11.50;1.50;;;12.70;99.90;;;;;;7342480;32;20092;-65
2022/10/10 19:22:30;;;;;;;9.27;1.50;;;12.60;99.90;;;;;;7349210;32;20169;-64
2022/10/10 19:26:33;;;;;;;12.15;1.42;;;12.50;99.90;;;;;;7344671;32;20100;-64
2022/10/10 19:30:42;;;;;;;11.65;1.83;;;12.40;99.90;;;;;;7346369;32;20136;-63
2022/10/10 19:34:44;;;;;;;15.43;2.28;;;12.30;99.90;;;;;;7347889;32;20217;-64
2022/10/10 19:38:46;;;;;;;11.95;1.55;;;12.20;99.90;;;;;;7344469;32;20121;-63
2022/10/10 19:42:47;;;;;;;8.80;1.45;;;12.10;99.90;;;;;;7350752;32;20107;-64
2022/10/10 19:46:49;;;;;;;12.35;2.03;;;11.80;99.90;;;;;;7345409;32;20556;-63
2022/10/10 19:50:52;;;;;;;11.48;1.67;;;11.70;99.90;;;;;;7345722;32;20146;-64
2022/10/10 19:54:54;;;;;;;10.38;1.48;;;11.50;99.90;;;;;;7343606;32;20217;-62
2022/10/10 19:58:58;;;;;;;15.15;2.50;;;11.40;99.90;;;;;;7339576;32;20134;-62
2022/10/10 20:02:59;;;;;;;8.77;1.73;;;11.20;99.90;;;;;;7343637;32;20103;-65
2022/10/10 20:07:01;;;;;;;10.10;1.87;;;11.00;99.90;;;;;;7337045;32;20111;-64
2022/10/10 20:11:03;;;;;;;15.52;1.95;;;10.80;99.90;;;;;;7355990;32;20107;-64
2022/10/10 20:15:05;;;;;;;21.10;3.50;;;10.60;99.90;;;;;;7338601;32;20099;-63
2022/10/10 20:19:07;;;;;;;16.17;3.40;;;10.50;99.90;;;;;;7348213;32;20092;-66
2022/10/10 20:23:11;;;;;;;17.92;3.25;;;10.30;99.90;;;;;;7346395;32;20104;-63
2022/10/10 20:27:13;;;;;;;15.70;3.20;;;10.20;99.90;;;;;;7342351;32;20129;-64
2022/10/10 20:31:18;;;;;;;11.12;2.53;;;10.00;99.90;;;;;;7346007;32;20099;-63
2022/10/10 20:35:20;;;;;;;13.95;2.28;;;9.70;99.90;;;;;;7344137;32;20136;-64
2022/10/10 20:39:22;;;;;;;19.70;8.27;;;9.60;99.90;;;;;;7344277;32;20188;-63
2022/10/10 20:43:23;;;;;;;19.70;4.65;;;9.50;99.90;;;;;;7342249;32;20293;-63
2022/10/10 20:47:25;;;;;;;11.25;2.40;;;9.40;99.90;;;;;;7336324;32;20195;-65
2022/10/10 20:51:28;;;;;;;12.27;1.60;;;9.30;99.90;;;;;;7347698;32;20557;-64
2022/10/10 20:55:30;;;;;;;13.52;1.80;;;9.10;99.90;;;;;;7339930;32;20099;-64
2022/10/10 20:59:31;;;;;;;8.93;1.42;;;9.00;99.90;;;;;;7335745;32;20117;-66
2022/10/10 21:03:33;;;;;;;13.45;2.83;;;8.90;99.90;;;;;;7341579;32;20190;-63
2022/10/10 21:07:35;;;;;;;12.25;1.67;;;8.80;99.90;;;;;;7343313;32;20147;-64
2022/10/10 21:11:38;;;;;;;11.32;1.58;;;8.70;99.90;;;;;;7340730;32;20138;-60
2022/10/10 21:15:42;;;;;;;11.98;2.03;;;8.60;99.90;;;;;;7342621;32;20096;-61
2022/10/10 21:19:43;;;;;;;10.65;2.00;;;8.50;99.90;;;;;;7342735;32;20252;-59
2022/10/10 21:23:46;;;;;;;10.48;2.15;;;8.50;99.90;;;;;;7348575;32;20099;-60